[ 高 清 坊 ]

[ 897 主题 / 1777353 回复 ]

版块介绍: 论坛制作高清同志影视

版主: 晃司, blv

 类型 作者/时间 回复 查看 最后发表
  [每分钟120击].120.Beats.Per.Minute.BPM.2017.720p.WEBRip.x264.AAC-QaFoNE  ...23456..93 blv 2018-1-1 2301/23772 tossp 前天 15:19
  [嫉妒做客].Jealousy.Is.My.Guest.2016.Short.1080p.x264.AAC-QaFoNE  ...23456..40 blv 2017-12-28 994/13404 hothothot 昨天 21:32
  [请以你的名字呼唤我].Call.Me.By.Your.Name.2017.DVDScr.Upscaled.x264.AAC-QaFoNE 评价指数 19  ...23456..119 blv 2017-12-23 2950/26845 韦唯 昨天 02:56
  [疾走马丁].Speed.Walking.2014.1080p.WEBRip.x265.AC3-QaFoNE  ...23456..23 blv 2017-12-22 553/11195 oppojun 2018-7-28 08:48
  [帅气的恶魔].Handsome.Devil.2016.1080p.WEB-DL.x265.AC3-QaFoNE  ...23456..60 blv 2017-12-15 1479/17483 aswong 5 天前 08:42
  [觉醒彩虹].Woke.2017.S01.1080p.WEBRip.x264.AAC-QaFoNE  ...23456..41 blv 2017-12-8 1003/13680 fengma2004 6 天前 19:34
  [公猫].Tomcat.2016.DVDRip.x264.AC3-QaFoNE  ...23456..53 blv 2017-12-7 1306/14270 bearif 昨天 22:57
  [归巢].The.Nest.2016.DVDRip.x264.AAC-QaFoNE  ...23456..43 blv 2017-12-1 1074/13030 hothothot 昨天 21:36
  [日常对话].Small.Talk.2016.720p.WEBRip.x264.AAC-QaFoNE  ...23456..15 blv 2017-11-27 364/11197 bearif 昨天 22:59
  [克罗地亚宪法].The.Constitution.2016.720p.WEBRip.x264.AC3-QaFoNE  ...23456..24 blv 2017-11-18 578/10789 longzhang2012 5 天前 12:18
  [沙滩鼠].Beach.Rats.2017.1080p.BDRip.x265.AAC.AC3-QaFoNE  ...23456..95 blv 2017-11-11 2362/24274 兔渍君 前天 10:34
  [老虎之战].The.Tigers.Fight.2016.Short.1080p.x264.AAC-QaFoNE  ...23456..28 blv 2017-10-22 676/13209 qafuser 7 天前 22:47
  [白日守门人].Daytime.Doorman.2016.Short.1080p.x264.AAC-QaFoNE  ...23456..81 blv 2017-10-11 2001/29012 bearif 昨天 23:01
  [秋天之前].Before.the.Fall.2016.720p.WEB-DL.x264.AAC-QaFoNE  ...23456..102 blv 2017-10-7 2546/23936 bearif 昨天 23:03
  [另一面].The.Other.Side.2017.Short.1080p.x264.AAC-QaFoNE  ...23456..46 blv 2017-10-1 1132/14873 雨犹未尽 3 天前 01:19
  [同志地下情史之托马斯].The.DL.Chronicles.RETURNS.Episode.Thomas.2012.720p.WEBRip  ...23456..34 blv 2017-9-24 843/15448 bearif 昨天 23:05
  [足球赛].A.Football.Match.2015.Short.720p.x264.AAC-QaFoNE  ...23456..48 blv 2017-9-21 1192/16180 hothothot 昨天 21:40
  [一分五十四秒].1.54.2016.720p.WEBRip.x264.AAC-QaFoNE  ...23456..41 blv 2017-9-17 1006/16338 qafuser 7 天前 22:37
  [小费].Tips.2016.Short.1080p.x264.AAC-QaFoNE  ...23456..43 blv 2017-9-14 1074/16556 fengma2004 6 天前 19:19
  [阿里格尔].Aligarh.2016.720p.WEBRip.x264.AAC-QaFoNE  ...23456..31 blv 2017-9-10 763/14714 fengma2004 6 天前 19:21
  [你愿意嫁给他吗].Do.You.Take.This.Man.2016.720p.WEB-DL.x264.AAC-QaFoNE  ...23456..64 blv 2017-9-3 1585/19601 TwitteringDanie 8 小时前
  [一起度假].Away.with.Me.2015.Short.1080p.x264.AAC-QaFoNE  ...23456..54 blv 2017-8-31 1335/16437 alexeil 2018-8-10 14:30
  [橘衫男子].Man.in.an.Orange.Shirt.2017.Complete.720p.WEBRip.x264.AAC-QaFoNE  ...23456..66 blv 2017-8-27 1640/19327 hothothot 昨天 21:39
  [碎碎爱].Fragments.2015.Short.720p.x264.AAC-QaFoNE  ...23456..31 blv 2017-8-23 760/10950 1452481422 2018-8-9 17:45
  [演讲辩论社].Speech.&.Debate.2017.720p.WEB-DL.x264.AAC-QaFoNE(8月22日修订版)  ...23456..36 blv 2017-8-19 891/14344 1452481422 2018-8-9 17:47
  • QAF三国群英传信息联盟发布平台
  •